Mac Dill Air Force Base
KMCF : now visible

Airfield :











YOU CAN JOIN US ON...

 
LOGIN :

Register | Disclaimer

   EN    FR    IT 

 









Legend :    VFR   Marginal VFR   IFR   Intensive IFR   Very Intensive IFR
Visi :
Ceiling :
>= 8 km
>= 3000ft
5 to 8 km
1000 to 3000 ft
1500m to 5 km
500 to 1000 ft
800 to 1500m
200 to 500 ft
< 800m
< 200 ft
Symbols :   Thunderstorms  Fog  Heavy snow  Heavy precipitations  Wind > 20 kt







- Airport Elevation : 14 ft


KMCF - Mac Dill Air Force Base

CURRENT METAR :
  • 182356Z AUTO 23004KT 10SM CLR 23/21 A3011 RMK AO2 SLP199 T02340211 10265 20232 52009 FZRANO $

EXPIRED METARs :
  • 182256Z AUTO 22008KT 10SM CLR 24/21 A3010 RMK AO2 SLP196 T02400213 FZRANO $
  • 182156Z AUTO 21010KT 10SM CLR 26/22 A3008 RMK AO2 SLP189 T02570218 FZRANO $

TAF TAF KMCF
Valid from the 18 at 17:00 until the 19 at 23:00 UTC


181700Z 1817/1923 21009KT 9999 BKN070 QNH3007INS
BECMG 1900/1901 VRB04KT 9999 SCT020 BKN040 QNH3010INS
BECMG 1905/1906 06004KT 9999 SCT005 BKN015 OVC020 QNH3013INS
BECMG 1907/1908 07006KT 8000 BR OVC005 QNH3013INS
BECMG 1915/1916 08009KT 9999 NSW BKN015 OVC020 QNH3010INS TX29/1819Z TN19/1910Z
KZMA FIR / North America



MET'MAP, your aeronautical weather chart ! - Copyright ORBIFLY December 2007 - Disclaimer

ORBIFLY MET'MAP TEAM :

Programming & Development : Alexandra Zaïnal
Concept & Development : Baudouin d'Aumeries
Co-Development & Prog : Marc-Olivier Méhu
Technical & hardware support : Manuel Goepfert

Contact : metmap@orbifly.com




SOURCES & CREDITS :

   NOAA       Earth
Advisory